Time;durP1;ratioP1;P1;durP2;ratioP2;P2;SDS_P1;SDS_P2;PMS_P1;PMS_P2;Temp;Humidity;BMP_temperature;BMP_pressure;BME280_temperature;BME280_humidity;BME280_pressure;Samples;Min_cycle;Max_cycle;Signal;HPM_P1;HPM_P2
2024/04/15 19:43:52;;;;;;;4.80;3.70;;;;;;;13.51;100.00;99555.43;102678;1286;613837;-52
2024/04/15 19:46:19;;;;;;;7.30;3.80;;;;;;;13.66;100.00;99582.94;104293;1267;155073;-52
2024/04/15 19:48:47;;;;;;;7.50;3.70;;;;;;;13.66;100.00;99598.38;104504;1270;62949;-52
2024/04/15 19:51:15;;;;;;;6.60;3.70;;;;;;;13.62;100.00;99609.42;104443;1269;75529;-52
2024/04/15 19:53:44;;;;;;;5.80;3.80;;;;;;;13.68;100.00;99617.86;104637;1271;69062;-54
2024/04/15 19:56:12;;;;;;;6.80;3.80;;;;;;;13.64;100.00;99624.47;104457;1270;73224;-52
2024/04/15 19:58:39;;;;;;;5.70;3.70;;;;;;;13.61;100.00;99620.41;104488;1269;64397;-52
2024/04/15 20:01:07;;;;;;;5.70;3.60;;;;;;;13.66;100.00;99619.65;104741;1269;63004;-52
2024/04/15 20:03:35;;;;;;;6.40;3.90;;;;;;;13.71;100.00;99632.73;104637;1269;76505;-52
2024/04/15 20:06:05;;;;;;;5.80;4.00;;;;;;;13.79;100.00;99631.97;104960;1260;70274;-52
2024/04/15 20:08:33;;;;;;;6.60;4.00;;;;;;;13.76;100.00;99627.48;105306;1259;75201;-52
2024/04/15 20:11:01;;;;;;;5.50;3.80;;;;;;;13.70;100.00;99618.52;105211;1261;63524;-51
2024/04/15 20:13:29;;;;;;;6.40;3.70;;;;;;;13.72;100.00;99617.21;105500;1259;61879;-52
2024/04/15 20:15:58;;;;;;;6.10;4.20;;;;;;;13.72;100.00;99625.67;105463;1257;75726;-54
2024/04/15 20:18:41;;;;;;;5.70;3.40;;;;;;;13.71;100.00;99629.31;104871;1257;69303;-52
2024/04/15 20:21:09;;;;;;;8.10;4.00;;;;;;;13.72;100.00;99621.91;105314;1256;74144;-52
2024/04/15 20:23:37;;;;;;;7.60;3.90;;;;;;;13.75;100.00;99618.90;105116;1258;63085;-53
2024/04/15 20:26:07;;;;;;;7.50;3.80;;;;;;;13.76;100.00;99619.21;105062;1256;62054;-51
2024/04/15 20:28:35;;;;;;;8.70;4.40;;;;;;;13.78;100.00;99616.54;105177;1256;75003;-51
2024/04/15 20:31:03;;;;;;;7.60;3.40;;;;;;;13.82;100.00;99628.86;105225;1262;68241;-54
2024/04/15 20:33:32;;;;;;;6.60;3.80;;;;;;;13.86;100.00;99640.98;105418;1259;75174;-55
2024/04/15 20:36:00;;;;;;;5.60;3.20;;;;;;;13.86;100.00;99647.55;105341;1262;63166;-53
2024/04/15 20:38:28;;;;;;;7.40;3.60;;;;;;;13.83;100.00;99646.46;105241;1258;63261;-53
2024/04/15 20:40:56;;;;;;;6.20;3.50;;;;;;;13.85;100.00;99653.77;105280;1257;76801;-53
2024/04/15 20:43:23;;;;;;;5.50;2.80;;;;;;;13.89;100.00;99653.82;105488;1257;70368;-54
2024/04/15 20:45:51;;;;;;;5.90;2.50;;;;;;;13.94;100.00;99648.35;105230;1260;74228;-53
2024/04/15 21:27:40;;;;;;;4.30;1.80;;;;;;;14.81;100.00;99553.83;102796;1290;613436;-53
2024/04/15 21:30:08;;;;;;;4.70;1.40;;;;;;;15.02;100.00;99545.77;104775;1270;150587;-53
2024/04/15 21:32:36;;;;;;;4.70;1.50;;;;;;;15.01;100.00;99536.02;104603;1270;63039;-53
2024/04/15 21:35:04;;;;;;;4.30;1.80;;;;;;;15.04;100.00;99530.00;104537;1270;75543;-53
2024/04/15 21:37:32;;;;;;;5.40;1.60;;;;;;;15.05;100.00;99530.86;104415;1274;68979;-52
2024/04/15 21:40:00;;;;;;;3.80;1.60;;;;;;;15.10;100.00;99546.14;105063;1261;75714;-53
2024/04/15 21:42:28;;;;;;;5.90;1.70;;;;;;;15.16;100.00;99570.48;104928;1267;59675;-53
2024/04/15 21:44:56;;;;;;;3.70;1.60;;;;;;;15.21;100.00;99576.13;105002;1260;61492;-52
2024/04/15 21:47:24;;;;;;;5.30;2.10;;;;;;;15.23;100.00;99563.60;104891;1264;73149;-53
2024/04/15 21:49:52;;;;;;;3.80;1.50;;;;;;;15.25;100.00;99572.65;105067;1263;66282;-54
2024/04/15 21:52:21;;;;;;;4.50;1.80;;;;;;;15.27;100.00;99559.94;104926;1265;72707;-55
2024/04/15 21:54:49;;;;;;;4.20;1.50;;;;;;;15.17;100.00;99545.66;104953;1264;60545;-54
2024/04/15 21:57:16;;;;;;;5.10;1.80;;;;;;;15.09;100.00;99546.23;104840;1264;60523;-53
2024/04/15 21:59:45;;;;;;;3.30;1.80;;;;;;;15.13;100.00;99558.02;105141;1269;73934;-54
2024/04/15 22:02:13;;;;;;;3.70;1.80;;;;;;;15.16;100.00;99599.14;104920;1263;67354;-53
2024/04/15 22:04:41;;;;;;;4.00;2.10;;;;;;;15.12;100.00;99649.70;104878;1264;72771;-54
2024/04/15 22:07:26;;;;;;;7.10;2.30;;;;;;;15.06;100.00;99671.48;105078;1264;61859;-58
2024/04/15 22:09:54;;;;;;;3.50;1.80;;;;;;;15.02;100.00;99630.80;104804;1266;60687;-55
2024/04/15 22:12:22;;;;;;;4.60;2.20;;;;;;;15.04;100.00;99616.15;104800;1263;73333;-54
2024/04/15 22:20:51;;;;;;;4.00;1.50;;;;;;;15.13;100.00;99597.02;102335;1296;601579;-53
2024/04/15 22:23:19;;;;;;;4.60;1.50;;;;;;;15.12;100.00;99602.20;104677;1270;61099;-53
2024/04/15 22:25:57;;;;;;;4.40;1.70;;;;;;;15.13;100.00;99609.73;104662;1266;60351;-53
2024/04/15 22:28:25;;;;;;;13.60;2.50;;;;;;;15.10;100.00;99605.88;104849;1266;72126;-54
2024/04/15 22:30:55;;;;;;;3.10;1.30;;;;;;;15.10;100.00;99614.75;104607;1271;67450;-54
2024/04/15 22:33:23;;;;;;;3.90;1.90;;;;;;;15.16;100.00;99618.30;104530;1264;213353;-53
2024/04/15 22:35:51;;;;;;;5.90;2.30;;;;;;;15.16;100.00;99622.02;104808;1267;60522;-53
2024/04/15 22:38:19;;;;;;;4.60;1.70;;;;;;;15.17;100.00;99622.27;104793;1264;60715;-53
2024/04/15 22:40:48;;;;;;;4.70;1.90;;;;;;;15.19;100.00;99616.27;104712;1269;72898;-53
2024/04/15 22:43:17;;;;;;;3.70;1.50;;;;;;;15.20;100.00;99609.30;104728;1264;67092;-53
2024/04/15 22:45:45;;;;;;;3.30;1.40;;;;;;;15.15;100.00;99606.40;104576;1264;73269;-53
2024/04/15 22:48:13;;;;;;;4.30;1.70;;;;;;;15.12;100.00;99612.34;104748;1265;61720;-53
2024/04/15 22:50:41;;;;;;;5.90;2.00;;;;;;;15.10;100.00;99616.48;105139;1262;60751;-53
2024/04/15 22:53:08;;;;;;;5.20;1.70;;;;;;;15.12;100.00;99621.20;104802;1257;73994;-53
2024/04/15 22:55:36;;;;;;;4.50;2.00;;;;;;;15.13;100.00;99613.78;105066;1257;66972;-52
2024/04/15 22:58:04;;;;;;;3.60;1.50;;;;;;;15.15;100.00;99610.44;105170;1262;72751;-53
2024/04/15 23:00:31;;;;;;;3.60;1.50;;;;;;;15.17;100.00;99613.27;105509;1258;61829;-53
2024/04/15 23:02:59;;;;;;;3.80;1.80;;;;;;;15.19;100.00;99614.85;105062;1257;60410;-52
2024/04/15 23:05:27;;;;;;;3.40;1.50;;;;;;;15.20;100.00;99611.84;105050;1258;71905;-53
2024/04/15 23:07:58;;;;;;;3.30;1.80;;;;;;;15.24;100.00;99609.88;105493;1258;66991;-53
2024/04/15 23:10:26;;;;;;;6.60;1.90;;;;;;;15.30;100.00;99606.65;105687;1257;71518;-53
2024/04/15 23:12:54;;;;;;;4.40;1.70;;;;;;;15.31;100.00;99612.30;105121;1257;61703;-53
2024/04/15 23:15:22;;;;;;;3.90;1.90;;;;;;;15.32;100.00;99623.70;105291;1260;60354;-53
2024/04/15 23:17:49;;;;;;;5.40;1.80;;;;;;;15.32;100.00;99629.11;105484;1256;72657;-53
2024/04/15 23:20:17;;;;;;;4.80;2.10;;;;;;;15.31;100.00;99618.70;105561;1257;66975;-51
2024/04/15 23:22:46;;;;;;;4.70;2.20;;;;;;;15.27;100.00;99612.36;105468;1263;72697;-55
2024/04/15 23:25:14;;;;;;;4.20;2.20;;;;;;;15.17;100.00;99608.10;104928;1258;61676;-54
2024/04/15 23:27:41;;;;;;;5.50;2.90;;;;;;;15.09;100.00;99610.53;107633;1257;60239;-53
2024/04/15 23:30:10;;;;;;;5.50;2.00;;;;;;;15.00;100.00;99612.92;105296;1257;72650;-51
2024/04/15 23:32:38;;;;;;;6.10;2.10;;;;;;;14.91;100.00;99607.73;105266;1257;65657;-54
2024/04/15 23:35:07;;;;;;;4.50;1.80;;;;;;;14.81;100.00;99597.72;105287;1257;72668;-53
2024/04/15 23:37:35;;;;;;;4.00;1.90;;;;;;;14.71;100.00;99594.57;105253;1258;60440;-53
2024/04/15 23:40:02;;;;;;;7.20;2.30;;;;;;;14.69;100.00;99592.55;105392;1260;60321;-53
2024/04/15 23:42:30;;;;;;;4.40;2.30;;;;;;;14.64;100.00;99591.48;105370;1261;73903;-53
2024/04/15 23:45:16;;;;;;;3.70;1.80;;;;;;;14.59;100.00;99592.26;105205;1260;65904;-53
2024/04/15 23:48:03;;;;;;;3.70;2.00;;;;;;;14.55;100.00;99597.39;105258;1257;72740;-53
2024/04/15 23:50:49;;;;;;;5.30;2.40;;;;;;;14.50;100.00;99602.09;105048;1263;60638;-53
2024/04/15 23:53:36;;;;;;;4.30;2.40;;;;;;;14.46;100.00;99601.18;105031;1257;60548;-52
2024/04/15 23:56:22;;;;;;;3.50;1.90;;;;;;;14.43;100.00;99603.07;105093;1258;72650;-51
2024/04/15 23:58:50;;;;;;;4.10;1.80;;;;;;;14.38;100.00;99603.19;105622;1254;66263;-52
